Time;durP1;ratioP1;P1;durP2;ratioP2;P2;SDS_P1;SDS_P2;PMS_P1;PMS_P2;Temp;Humidity;BMP_temperature;BMP_pressure;BME280_temperature;BME280_humidity;BME280_pressure;Samples;Min_cycle;Max_cycle;Signal;HPM_P1;HPM_P2
2022/11/11 00:00:29;;;;;;;41.40;21.23;;;11.00;99.90;;;;;;5096876;28;20579;-73
2022/11/11 00:02:55;;;;;;;40.90;22.10;;;11.00;99.90;;;;;;5095710;28;20542;-73
2022/11/11 00:05:21;;;;;;;46.72;22.63;;;11.00;99.90;;;;;;5095588;28;20444;-74
2022/11/11 00:07:48;;;;;;;38.70;22.10;;;11.00;99.90;;;;;;5097020;28;20632;-73
2022/11/11 00:10:14;;;;;;;45.85;24.10;;;10.90;99.90;;;;;;5095422;28;20441;-73
2022/11/11 00:12:39;;;;;;;42.10;21.45;;;10.90;99.90;;;;;;5096819;28;20295;-73
2022/11/11 00:15:05;;;;;;;42.27;22.20;;;10.90;99.90;;;;;;5096614;28;20220;-73
2022/11/11 00:26:05;;;;;;;41.85;19.77;;;10.80;99.90;;;;;;5096228;28;20231;-73
2022/11/11 00:28:30;;;;;;;42.50;23.30;;;10.80;99.90;;;;;;5096539;28;20172;-73
2022/11/11 00:31:07;;;;;;;43.53;20.83;;;10.80;99.90;;;;;;5096204;28;20223;-73
2022/11/11 00:33:33;;;;;;;40.70;22.17;;;10.80;99.90;;;;;;5096431;28;20560;-73
2022/11/11 00:36:00;;;;;;;35.35;21.25;;;10.80;99.90;;;;;;5096509;28;20196;-73
2022/11/11 00:38:44;;;;;;;49.33;22.50;;;10.70;99.90;;;;;;5095097;28;20216;-73
2022/11/11 00:41:11;;;;;;;35.28;20.35;;;10.70;99.90;;;;;;5096229;28;20288;-73
2022/11/11 00:43:37;;;;;;;44.45;22.63;;;10.70;99.90;;;;;;5096207;28;20176;-73
2022/11/11 00:51:32;;;;;;;47.28;23.00;;;10.70;99.90;;;;;;5096711;28;20183;-73
2022/11/11 00:53:58;;;;;;;44.77;20.33;;;10.70;99.90;;;;;;5094667;28;20212;-73
2022/11/11 00:56:24;;;;;;;41.90;22.03;;;10.60;99.90;;;;;;5096249;28;20200;-73
2022/11/11 00:58:49;;;;;;;44.65;22.55;;;10.60;99.90;;;;;;5094656;28;20421;-74
2022/11/11 01:01:15;;;;;;;40.73;21.90;;;10.60;99.90;;;;;;5094595;28;20207;-73
2022/11/11 01:03:41;;;;;;;43.77;21.43;;;10.50;99.90;;;;;;5095888;28;20177;-73
2022/11/11 01:06:08;;;;;;;41.63;22.27;;;10.50;99.90;;;;;;5095989;28;20199;-73
2022/11/11 01:08:34;;;;;;;41.20;22.27;;;10.50;99.90;;;;;;5095823;28;20816;-73
2022/11/11 01:10:59;;;;;;;44.33;21.80;;;10.50;99.90;;;;;;5094330;28;20239;-73
2022/11/11 01:13:30;;;;;;;38.60;21.90;;;10.50;99.90;;;;;;5095536;28;20386;-73
2022/11/11 01:16:11;;;;;;;37.17;21.90;;;10.50;99.90;;;;;;5094389;28;20204;-73
2022/11/11 01:18:37;;;;;;;41.85;21.25;;;10.50;99.90;;;;;;5095887;28;20176;-72
2022/11/11 01:21:04;;;;;;;38.17;21.20;;;10.40;99.90;;;;;;5095674;28;20246;-73
2022/11/11 01:23:31;;;;;;;40.97;21.92;;;10.40;99.90;;;;;;5095426;28;20685;-73
2022/11/11 01:26:19;;;;;;;38.72;22.42;;;10.40;99.90;;;;;;5095614;28;20223;-73
2022/11/11 01:28:48;;;;;;;39.10;22.95;;;10.40;99.90;;;;;;5094138;28;20184;-74
2022/11/11 01:31:16;;;;;;;49.83;23.10;;;10.40;99.90;;;;;;5093948;28;20192;-72
2022/11/11 01:33:42;;;;;;;40.10;21.88;;;10.40;99.90;;;;;;5093849;28;20307;-73
2022/11/11 01:36:20;;;;;;;41.77;22.00;;;10.40;99.90;;;;;;5093951;28;20623;-73
2022/11/11 01:38:52;;;;;;;39.10;22.90;;;10.50;99.90;;;;;;5094235;28;20417;-73
2022/11/11 01:41:32;;;;;;;38.67;20.08;;;10.50;99.90;;;;;;5093227;28;20587;-74
2022/11/11 01:44:10;;;;;;;39.90;20.35;;;10.50;99.90;;;;;;5093788;28;20176;-74
2022/11/11 01:46:54;;;;;;;37.97;21.60;;;10.50;99.90;;;;;;5093601;28;20180;-73
2022/11/11 01:49:32;;;;;;;38.40;21.15;;;10.50;99.90;;;;;;5093616;28;20208;-73
2022/11/11 01:52:16;;;;;;;31.05;19.73;;;10.50;99.90;;;;;;5095403;28;20203;-73
2022/11/11 01:54:52;;;;;;;40.30;20.75;;;10.50;99.90;;;;;;5094791;28;20196;-73
2022/11/11 01:57:44;;;;;;;37.95;20.63;;;10.50;99.90;;;;;;5094833;28;20264;-73
2022/11/11 02:00:13;;;;;;;36.10;20.20;;;10.50;99.90;;;;;;5086270;28;20204;-73
2022/11/11 02:02:57;;;;;;;45.13;22.48;;;10.50;99.90;;;;;;5093395;28;20184;-73
2022/11/11 02:05:44;;;;;;;37.70;21.75;;;10.40;99.90;;;;;;5093164;28;20200;-73
2022/11/11 02:08:13;;;;;;;39.10;19.45;;;10.40;99.90;;;;;;5093317;28;20188;-73
2022/11/11 02:10:43;;;;;;;34.47;20.52;;;10.40;99.90;;;;;;5093255;28;20558;-73
2022/11/11 02:15:57;;;;;;;39.33;21.00;;;10.40;99.90;;;;;;5094959;28;20200;-73
2022/11/11 02:18:23;;;;;;;36.60;19.80;;;10.40;99.90;;;;;;5094428;28;20180;-73
2022/11/11 02:20:49;;;;;;;39.47;19.23;;;10.30;99.90;;;;;;5094498;28;20188;-73
2022/11/11 02:23:31;;;;;;;36.33;21.20;;;10.30;99.90;;;;;;5094393;28;20379;-73
2022/11/11 02:26:01;;;;;;;38.17;21.42;;;10.30;99.90;;;;;;5094517;28;20472;-72
2022/11/11 02:28:27;;;;;;;35.03;19.67;;;10.30;99.90;;;;;;5094305;28;20255;-73
2022/11/11 02:30:52;;;;;;;32.13;19.63;;;10.30;99.90;;;;;;5092925;28;20228;-73
2022/11/11 02:33:18;;;;;;;36.33;21.60;;;10.30;99.90;;;;;;5092826;28;20253;-73
2022/11/11 02:35:56;;;;;;;34.93;19.70;;;10.20;99.90;;;;;;5092760;28;20607;-73
2022/11/11 02:38:24;;;;;;;36.28;19.88;;;10.20;99.90;;;;;;5092881;28;20259;-73
2022/11/11 02:43:34;;;;;;;35.85;19.23;;;10.20;99.90;;;;;;5094399;28;20166;-73
2022/11/11 02:46:02;;;;;;;37.90;20.07;;;10.10;99.90;;;;;;5094264;28;20279;-73
2022/11/11 02:48:28;;;;;;;36.13;21.80;;;10.10;99.90;;;;;;5093951;28;20242;-73
2022/11/11 02:50:54;;;;;;;42.17;22.05;;;10.10;99.90;;;;;;5094117;28;20587;-74
2022/11/11 02:53:20;;;;;;;37.67;19.80;;;10.10;99.90;;;;;;5092981;28;20299;-73
2022/11/11 02:55:46;;;;;;;41.00;21.48;;;10.00;99.90;;;;;;5094035;28;20729;-73
2022/11/11 02:58:12;;;;;;;32.00;19.77;;;10.10;99.90;;;;;;5093962;28;20173;-73
2022/11/11 03:00:38;;;;;;;39.67;21.70;;;10.00;99.90;;;;;;5093915;28;20603;-75
2022/11/11 03:03:04;;;;;;;37.47;20.10;;;10.00;99.90;;;;;;5093805;28;20184;-73
2022/11/11 03:05:30;;;;;;;34.90;19.07;;;10.00;99.90;;;;;;5093580;28;20665;-73
2022/11/11 03:07:55;;;;;;;38.90;20.60;;;10.00;99.90;;;;;;5093745;28;20595;-73
2022/11/11 03:10:21;;;;;;;39.60;22.27;;;10.00;99.90;;;;;;5093677;28;20949;-73
2022/11/11 03:12:47;;;;;;;34.67;20.10;;;10.00;99.90;;;;;;5093598;28;20212;-73
2022/11/11 03:15:12;;;;;;;35.50;20.20;;;9.90;99.90;;;;;;5093573;28;20606;-73
2022/11/11 03:17:38;;;;;;;40.00;22.13;;;9.90;99.90;;;;;;5092435;28;20172;-73
2022/11/11 03:23:01;;;;;;;34.00;18.92;;;9.90;99.90;;;;;;5093949;28;20543;-73
2022/11/11 03:25:39;;;;;;;34.92;20.73;;;9.90;99.90;;;;;;5093305;28;20219;-74
2022/11/11 03:28:05;;;;;;;36.78;19.45;;;9.90;99.90;;;;;;5092293;28;20651;-73
2022/11/11 03:30:31;;;;;;;35.95;21.20;;;9.90;99.90;;;;;;5092209;28;20203;-73
2022/11/11 03:32:59;;;;;;;37.60;20.13;;;9.90;99.90;;;;;;5093546;28;20200;-73
2022/11/11 03:35:25;;;;;;;40.10;20.23;;;9.90;99.90;;;;;;5093478;28;20235;-73
2022/11/11 03:40:34;;;;;;;35.88;20.10;;;9.90;99.90;;;;;;5093299;28;20253;-73
2022/11/11 03:43:00;;;;;;;40.30;20.77;;;9.90;99.90;;;;;;5092252;28;20599;-73
2022/11/11 03:45:26;;;;;;;36.93;20.77;;;9.80;99.90;;;;;;5093454;28;20234;-73
2022/11/11 03:47:53;;;;;;;37.30;20.57;;;9.80;99.90;;;;;;5092181;28;20717;-73
2022/11/11 03:50:20;;;;;;;36.92;19.63;;;9.80;99.90;;;;;;5093204;28;20245;-73
2022/11/11 03:52:45;;;;;;;36.95;19.52;;;9.80;99.90;;;;;;5093306;28;20204;-73
2022/11/11 03:55:11;;;;;;;37.57;17.60;;;9.70;99.90;;;;;;5093265;28;20271;-73
2022/11/11 03:57:44;;;;;;;36.40;20.37;;;9.70;99.90;;;;;;5093290;28;20172;-73
2022/11/11 04:00:11;;;;;;;35.13;20.13;;;9.70;99.90;;;;;;5091941;28;20677;-73
2022/11/11 04:10:52;;;;;;;39.28;20.52;;;9.60;99.90;;;;;;5097071;28;20261;-73
2022/11/11 04:16:07;;;;;;;35.35;20.13;;;9.60;99.90;;;;;;5097302;28;20724;-73
2022/11/11 04:26:57;;;;;;;37.47;21.20;;;9.60;99.90;;;;;;5097096;28;20195;-73
2022/11/11 04:29:29;;;;;;;39.22;21.20;;;9.60;99.90;;;;;;5096555;28;20188;-74
2022/11/11 04:34:52;;;;;;;35.50;20.45;;;9.60;99.90;;;;;;5096336;28;20195;-73
2022/11/11 04:37:19;;;;;;;34.83;20.58;;;9.60;99.90;;;;;;5096305;28;20259;-73
2022/11/11 04:42:31;;;;;;;35.90;21.55;;;9.60;99.90;;;;;;5096687;28;20705;-73
2022/11/11 04:48:00;;;;;;;33.20;19.05;;;9.50;99.90;;;;;;5096281;28;20233;-73
2022/11/11 04:50:32;;;;;;;33.83;20.15;;;9.50;99.90;;;;;;5094801;28;20196;-73
2022/11/11 04:52:58;;;;;;;35.85;19.98;;;9.50;99.90;;;;;;5096002;28;20205;-73
2022/11/11 04:58:08;;;;;;;40.63;19.30;;;9.50;99.90;;;;;;5096366;28;20193;-73
2022/11/11 05:00:35;;;;;;;29.00;19.20;;;9.50;99.90;;;;;;5095995;28;20188;-73
2022/11/11 05:03:15;;;;;;;41.10;22.25;;;9.50;99.90;;;;;;5095945;28;20180;-73
2022/11/11 05:11:17;;;;;;;41.90;20.60;;;9.30;99.90;;;;;;5093695;28;20198;-73
2022/11/11 05:22:24;;;;;;;35.15;20.67;;;9.30;99.90;;;;;;5096004;28;20185;-73
2022/11/11 05:27:34;;;;;;;35.00;20.15;;;9.30;99.90;;;;;;5093920;28;20175;-73
2022/11/11 05:30:00;;;;;;;33.97;20.60;;;9.20;99.90;;;;;;5091732;28;20279;-73
2022/11/11 05:32:26;;;;;;;45.87;25.27;;;9.30;99.90;;;;;;5091383;28;20471;-73
2022/11/11 05:34:52;;;;;;;45.17;29.17;;;9.20;99.90;;;;;;5091471;28;20196;-73
2022/11/11 05:37:18;;;;;;;42.47;26.35;;;9.20;99.90;;;;;;5090927;28;20180;-73
2022/11/11 05:39:44;;;;;;;45.47;25.10;;;9.10;99.90;;;;;;5092741;28;20711;-73
2022/11/11 05:42:10;;;;;;;35.95;22.40;;;9.10;99.90;;;;;;5092851;28;20829;-73
2022/11/11 05:44:36;;;;;;;37.65;23.10;;;9.00;99.90;;;;;;5092115;28;20276;-73
2022/11/11 05:47:02;;;;;;;39.80;26.40;;;9.00;99.90;;;;;;5094176;28;20205;-73
2022/11/11 05:49:28;;;;;;;37.47;23.87;;;9.00;99.90;;;;;;5090424;28;20212;-73
2022/11/11 05:51:57;;;;;;;43.30;23.65;;;9.00;99.90;;;;;;5115645;28;20408;-73
2022/11/11 05:54:22;;;;;;;34.38;20.02;;;9.00;99.90;;;;;;5115063;28;20223;-73
2022/11/11 05:56:48;;;;;;;34.00;19.60;;;9.00;99.90;;;;;;5115727;28;20613;-73
2022/11/11 05:59:14;;;;;;;33.10;19.10;;;9.00;99.90;;;;;;5096720;28;20179;-74
2022/11/11 06:01:40;;;;;;;39.13;22.20;;;9.00;99.90;;;;;;5115302;28;20387;-74
2022/11/11 06:04:07;;;;;;;37.87;22.87;;;9.00;99.90;;;;;;5112048;28;20207;-73
2022/11/11 06:06:33;;;;;;;40.08;22.13;;;9.00;99.90;;;;;;5112749;28;20407;-73
2022/11/11 06:08:59;;;;;;;33.90;19.80;;;9.00;99.90;;;;;;5094414;28;20545;-72
2022/11/11 06:11:26;;;;;;;31.73;20.00;;;9.00;99.90;;;;;;5112883;28;20195;-73
2022/11/11 06:13:52;;;;;;;34.60;20.23;;;9.00;99.90;;;;;;5112644;28;20203;-73
2022/11/11 06:16:18;;;;;;;38.05;20.77;;;9.00;99.90;;;;;;5112460;28;20208;-72
2022/11/11 06:18:44;;;;;;;33.57;20.97;;;9.00;99.90;;;;;;5094328;28;20251;-71
2022/11/11 06:21:10;;;;;;;39.53;21.93;;;9.00;99.90;;;;;;5112594;28;20192;-72
2022/11/11 06:23:35;;;;;;;36.07;19.67;;;9.00;99.90;;;;;;5094478;28;20179;-72
2022/11/11 06:26:14;;;;;;;31.43;19.07;;;9.00;99.90;;;;;;5104337;28;20575;-72
2022/11/11 06:28:42;;;;;;;34.35;20.80;;;9.00;99.90;;;;;;5104320;28;20878;-71
2022/11/11 06:31:09;;;;;;;39.55;21.50;;;9.00;99.90;;;;;;5094029;28;20595;-71
2022/11/11 06:33:35;;;;;;;36.05;21.95;;;9.00;99.90;;;;;;5106760;28;20258;-71
2022/11/11 06:36:03;;;;;;;33.20;21.08;;;9.10;99.90;;;;;;5090235;28;20798;-72
2022/11/11 06:38:28;;;;;;;36.95;20.40;;;9.10;99.90;;;;;;5111866;28;20199;-72
2022/11/11 06:40:54;;;;;;;36.20;20.47;;;9.10;99.90;;;;;;5110777;28;20237;-72
2022/11/11 06:43:20;;;;;;;35.93;18.87;;;9.10;99.90;;;;;;5111705;28;20233;-72
2022/11/11 06:45:51;;;;;;;39.95;22.10;;;9.20;99.90;;;;;;5093524;28;20191;-72
2022/11/11 06:48:16;;;;;;;35.55;21.15;;;9.20;99.90;;;;;;5114020;28;20175;-72
2022/11/11 06:50:42;;;;;;;33.83;21.30;;;9.20;99.90;;;;;;5113762;28;20757;-72
2022/11/11 06:53:13;;;;;;;37.03;19.70;;;9.30;99.90;;;;;;5093375;28;20219;-72
2022/11/11 06:55:39;;;;;;;42.78;21.92;;;9.40;99.90;;;;;;5094527;28;20200;-72
2022/11/11 06:58:15;;;;;;;36.13;21.05;;;9.50;99.90;;;;;;5110658;28;20172;-71
2022/11/11 07:00:41;;;;;;;34.00;21.73;;;9.50;99.90;;;;;;5110687;28;20191;-71
2022/11/11 07:03:09;;;;;;;28.77;19.10;;;9.70;99.90;;;;;;5111218;28;20180;-72
2022/11/11 07:05:35;;;;;;;31.77;18.63;;;9.90;99.90;;;;;;5090995;28;20451;-72
2022/11/11 07:08:05;;;;;;;30.97;18.73;;;10.10;99.90;;;;;;5080942;28;20200;-72
2022/11/11 07:10:32;;;;;;;30.55;19.25;;;10.30;99.90;;;;;;5089875;28;20196;-72
2022/11/11 07:12:58;;;;;;;30.15;18.98;;;10.40;99.90;;;;;;5092856;28;20220;-73
2022/11/11 07:15:24;;;;;;;31.10;19.30;;;10.50;99.90;;;;;;5093656;28;20196;-73
2022/11/11 07:17:50;;;;;;;28.77;19.23;;;10.50;99.90;;;;;;5110740;28;20172;-73
2022/11/11 07:20:17;;;;;;;33.13;18.10;;;10.70;99.90;;;;;;5090853;28;20552;-73
2022/11/11 07:22:42;;;;;;;28.73;17.75;;;10.80;99.90;;;;;;5091156;28;20466;-73
2022/11/11 07:25:08;;;;;;;29.67;18.17;;;11.00;99.90;;;;;;5090891;28;20223;-72
2022/11/11 07:27:38;;;;;;;25.00;17.00;;;11.20;99.90;;;;;;5090979;28;20221;-73
2022/11/11 07:30:05;;;;;;;26.10;17.50;;;11.50;99.90;;;;;;5090173;28;20282;-72
2022/11/11 07:32:31;;;;;;;23.65;15.55;;;11.80;99.90;;;;;;5109483;28;20967;-73
2022/11/11 07:34:57;;;;;;;26.57;17.13;;;12.20;99.90;;;;;;5113019;28;20272;-73
2022/11/11 07:37:23;;;;;;;26.30;16.33;;;12.50;99.90;;;;;;5102578;28;20424;-73
2022/11/11 07:39:49;;;;;;;23.17;15.30;;;13.00;99.90;;;;;;5102074;28;20421;-73
2022/11/11 07:42:15;;;;;;;24.60;16.07;;;13.60;99.90;;;;;;5095875;28;20424;-73
2022/11/11 07:44:40;;;;;;;22.43;14.90;;;14.20;99.90;;;;;;5108671;28;20253;-73
2022/11/11 07:47:06;;;;;;;24.90;16.30;;;14.90;99.90;;;;;;5113779;28;20176;-72
2022/11/11 07:49:32;;;;;;;23.07;15.50;;;15.50;99.90;;;;;;5112801;28;20583;-73
2022/11/11 07:51:58;;;;;;;20.00;13.83;;;16.20;99.90;;;;;;5096159;28;20570;-72
2022/11/11 07:54:24;;;;;;;18.47;13.63;;;16.80;99.90;;;;;;5097228;28;20199;-73
2022/11/11 07:56:49;;;;;;;20.53;14.67;;;17.30;99.90;;;;;;5096979;28;20447;-73
2022/11/11 07:59:15;;;;;;;19.20;13.87;;;17.70;99.90;;;;;;5094855;28;20963;-73
2022/11/11 08:01:40;;;;;;;19.57;14.43;;;18.20;99.90;;;;;;5096308;28;20258;-73
2022/11/11 08:04:06;;;;;;;19.87;14.60;;;18.60;99.90;;;;;;5113258;28;20668;-73
2022/11/11 08:06:32;;;;;;;22.53;16.13;;;19.10;99.90;;;;;;5114337;28;20232;-73
2022/11/11 08:08:57;;;;;;;21.20;15.00;;;19.50;99.90;;;;;;5114741;28;20180;-73
2022/11/11 08:14:08;;;;;;;20.00;14.93;;;19.70;99.90;;;;;;5116683;28;20260;-73
2022/11/11 08:16:34;;;;;;;22.40;16.43;;;19.30;99.90;;;;;;5099136;28;20508;-73
2022/11/11 08:19:00;;;;;;;21.17;14.47;;;19.00;99.90;;;;;;5097913;28;20263;-74
2022/11/11 08:21:25;;;;;;;21.93;16.00;;;18.90;99.90;;;;;;5115691;28;20238;-73
2022/11/11 08:23:52;;;;;;;21.37;14.70;;;19.10;99.90;;;;;;5097310;28;20421;-73
2022/11/11 08:26:18;;;;;;;24.37;15.77;;;19.10;99.90;;;;;;5116782;28;20227;-73
2022/11/11 08:28:44;;;;;;;22.37;16.03;;;19.10;99.90;;;;;;5110320;28;20792;-73
2022/11/11 08:31:10;;;;;;;24.20;15.83;;;19.20;99.90;;;;;;5093715;28;20465;-73
2022/11/11 08:33:36;;;;;;;22.70;15.60;;;19.30;99.90;;;;;;5116187;27;20213;-73
2022/11/11 08:36:04;;;;;;;22.57;16.50;;;19.20;99.90;;;;;;5116377;28;20973;-73
2022/11/11 08:38:30;;;;;;;25.40;16.90;;;19.00;99.90;;;;;;5095927;28;20174;-73
2022/11/11 08:41:00;;;;;;;25.10;18.20;;;18.80;99.90;;;;;;5096466;28;20456;-73
2022/11/11 08:43:25;;;;;;;23.00;14.97;;;18.50;99.90;;;;;;5108256;27;20416;-73
2022/11/11 08:45:52;;;;;;;21.87;16.13;;;18.10;99.90;;;;;;5108596;27;20559;-73
2022/11/11 08:48:18;;;;;;;24.70;16.37;;;17.80;99.90;;;;;;5110359;28;20948;-73
2022/11/11 08:50:43;;;;;;;25.10;16.47;;;17.50;99.90;;;;;;5108389;28;20456;-73
2022/11/11 08:53:10;;;;;;;24.87;16.60;;;17.30;99.90;;;;;;5114658;28;20488;-74
2022/11/11 08:55:36;;;;;;;23.50;16.23;;;17.30;99.90;;;;;;5096843;28;20212;-73
2022/11/11 08:58:04;;;;;;;28.73;18.40;;;17.30;99.90;;;;;;5109547;28;21011;-73
2022/11/11 09:00:30;;;;;;;28.83;17.03;;;17.60;99.90;;;;;;5094829;28;20485;-73
2022/11/11 09:03:09;;;;;;;23.53;17.17;;;17.90;99.90;;;;;;5112346;28;20429;-73
2022/11/11 09:05:38;;;;;;;23.83;19.77;;;18.20;99.90;;;;;;5094491;28;20444;-73
2022/11/11 09:08:06;;;;;;;24.40;16.60;;;18.50;99.90;;;;;;5106866;28;20413;-73
2022/11/11 09:10:35;;;;;;;21.67;15.30;;;18.60;99.90;;;;;;5093908;28;20821;-72
2022/11/11 09:13:01;;;;;;;25.00;16.57;;;18.60;99.90;;;;;;5094421;28;20534;-73
2022/11/11 09:15:28;;;;;;;24.80;17.67;;;18.50;99.90;;;;;;5085572;28;20887;-73
2022/11/11 09:17:54;;;;;;;22.03;17.27;;;18.40;99.90;;;;;;5112336;28;20435;-73
2022/11/11 09:20:20;;;;;;;26.00;17.83;;;18.20;99.90;;;;;;5112834;28;20447;-73
2022/11/11 09:22:47;;;;;;;24.63;18.03;;;18.00;99.90;;;;;;5111911;28;20181;-73
2022/11/11 09:25:13;;;;;;;26.27;18.23;;;17.90;99.90;;;;;;5110002;28;20905;-73
2022/11/11 09:27:41;;;;;;;158.07;82.37;;;17.80;99.90;;;;;;5084526;28;20405;-73
2022/11/11 09:30:09;;;;;;;26.03;19.33;;;17.70;99.90;;;;;;5098211;28;20666;-73
2022/11/11 09:32:35;;;;;;;28.80;21.10;;;17.50;99.90;;;;;;5092800;28;20835;-73
2022/11/11 09:35:02;;;;;;;29.83;18.60;;;17.40;99.90;;;;;;5087090;28;20470;-73
2022/11/11 09:37:28;;;;;;;28.57;19.00;;;17.30;99.90;;;;;;5108100;27;20420;-73
2022/11/11 09:39:56;;;;;;;31.30;21.00;;;17.20;99.90;;;;;;5089632;27;20506;-73
2022/11/11 09:42:39;;;;;;;30.30;19.93;;;17.20;99.90;;;;;;5107651;28;20548;-72
2022/11/11 09:45:27;;;;;;;33.73;19.67;;;17.20;99.90;;;;;;5106346;28;20468;-73
2022/11/11 09:48:14;;;;;;;28.20;19.47;;;17.10;99.90;;;;;;5086010;28;21085;-73
2022/11/11 09:50:41;;;;;;;30.13;19.53;;;17.00;99.90;;;;;;5105091;28;20467;-73
2022/11/11 09:53:15;;;;;;;28.80;20.20;;;17.00;99.90;;;;;;5098453;28;20473;-73
2022/11/11 09:55:57;;;;;;;34.37;21.87;;;17.00;99.90;;;;;;5107137;28;20498;-73
2022/11/11 09:58:28;;;;;;;30.40;21.30;;;16.90;99.90;;;;;;5084587;28;20463;-73
2022/11/11 10:01:03;;;;;;;31.97;19.57;;;16.90;99.90;;;;;;5110168;28;20498;-73
2022/11/11 10:03:33;;;;;;;29.70;20.17;;;16.90;99.90;;;;;;5082618;28;20929;-73
2022/11/11 10:06:19;;;;;;;30.77;20.97;;;16.90;99.90;;;;;;5108725;28;20444;-73
2022/11/11 10:09:12;;;;;;;29.23;19.93;;;16.90;99.90;;;;;;5098013;28;20436;-73
2022/11/11 10:11:50;;;;;;;28.70;19.90;;;16.90;99.90;;;;;;5110065;28;20510;-73
2022/11/11 10:14:16;;;;;;;31.13;20.43;;;17.00;99.90;;;;;;5088193;28;20833;-73
2022/11/11 10:16:47;;;;;;;28.27;19.53;;;17.00;99.90;;;;;;5090325;28;20424;-73
2022/11/11 10:19:27;;;;;;;31.17;19.80;;;17.10;99.90;;;;;;5089836;28;20799;-73
2022/11/11 10:21:58;;;;;;;37.47;23.17;;;17.10;99.90;;;;;;5088205;28;20418;-73
2022/11/11 10:24:41;;;;;;;28.37;18.90;;;17.10;99.90;;;;;;5087107;28;20430;-73
2022/11/11 10:27:18;;;;;;;30.00;17.27;;;17.10;99.90;;;;;;5097685;28;20419;-73
2022/11/11 10:29:44;;;;;;;30.80;19.83;;;17.10;99.90;;;;;;5097870;28;20442;-72
2022/11/11 10:32:32;;;;;;;37.60;20.93;;;17.10;99.90;;;;;;5077891;28;20517;-73
2022/11/11 10:35:24;;;;;;;29.30;16.70;;;17.10;99.90;;;;;;5092048;28;20500;-73
2022/11/11 10:38:05;;;;;;;27.90;17.27;;;17.10;99.90;;;;;;5083616;28;21002;-73
2022/11/11 10:40:40;;;;;;;27.10;15.53;;;17.10;99.90;;;;;;5100281;28;20446;-73
2022/11/11 10:43:21;;;;;;;26.17;16.23;;;17.10;99.90;;;;;;5102470;28;20467;-73
2022/11/11 10:45:50;;;;;;;25.17;15.00;;;17.10;99.90;;;;;;5097627;28;20467;-73
2022/11/11 10:48:23;;;;;;;27.77;16.60;;;17.00;99.90;;;;;;5101202;28;20819;-73
2022/11/11 10:51:00;;;;;;;28.27;15.67;;;17.00;99.90;;;;;;5083937;28;20780;-72
2022/11/11 10:53:48;;;;;;;27.47;18.17;;;17.00;99.90;;;;;;5085968;28;20936;-73
2022/11/11 10:56:35;;;;;;;21.83;14.70;;;17.00;99.90;;;;;;5085615;28;20476;-72
2022/11/11 10:59:11;;;;;;;21.53;13.97;;;17.00;99.90;;;;;;5105754;28;20493;-73
2022/11/11 11:01:42;;;;;;;25.80;15.23;;;17.00;99.90;;;;;;5083178;28;20428;-72
2022/11/11 11:04:32;;;;;;;21.33;14.13;;;17.00;99.90;;;;;;5086924;28;20438;-74
2022/11/11 11:07:00;;;;;;;21.70;14.97;;;17.00;99.90;;;;;;5104031;28;20535;-73
2022/11/11 11:09:49;;;;;;;21.93;14.10;;;17.00;99.90;;;;;;5090368;28;20543;-73
2022/11/11 11:12:23;;;;;;;21.67;13.50;;;17.00;99.90;;;;;;5111039;28;20797;-73
2022/11/11 11:14:54;;;;;;;22.70;14.10;;;17.00;99.90;;;;;;5110221;28;20994;-73
2022/11/11 11:17:38;;;;;;;22.00;14.47;;;17.00;99.90;;;;;;5116020;28;20427;-73
2022/11/11 11:20:18;;;;;;;18.87;12.80;;;17.00;99.90;;;;;;5111724;28;20457;-72
2022/11/11 11:22:49;;;;;;;21.83;13.97;;;17.00;99.90;;;;;;5109150;28;20452;-73
2022/11/11 11:25:17;;;;;;;22.23;13.63;;;17.00;99.90;;;;;;5095269;28;20473;-73
2022/11/11 11:27:43;;;;;;;21.40;14.17;;;17.00;99.90;;;;;;5093258;28;20430;-73
2022/11/11 11:30:12;;;;;;;20.90;12.70;;;17.00;99.90;;;;;;5110775;28;20499;-73
2022/11/11 11:32:41;;;;;;;24.73;15.17;;;17.00;99.90;;;;;;5107370;28;20903;-72
2022/11/11 11:35:06;;;;;;;22.10;14.90;;;17.00;99.90;;;;;;5117144;28;20504;-73
2022/11/11 11:37:48;;;;;;;18.20;12.60;;;17.00;99.90;;;;;;5110626;28;20467;-73
2022/11/11 11:40:14;;;;;;;20.83;12.53;;;16.90;99.90;;;;;;5112724;28;20234;-73
2022/11/11 11:42:40;;;;;;;19.87;12.60;;;16.90;99.90;;;;;;5113160;28;20474;-72
2022/11/11 11:45:35;;;;;;;22.20;12.43;;;16.80;99.90;;;;;;5109817;28;20653;-73
2022/11/11 11:48:10;;;;;;;23.03;13.53;;;16.70;99.90;;;;;;5093908;28;20192;-73
2022/11/11 11:50:49;;;;;;;24.63;16.40;;;16.70;99.90;;;;;;5105892;28;20455;-74
2022/11/11 11:53:25;;;;;;;23.70;13.10;;;16.60;99.90;;;;;;5095263;28;20459;-73
2022/11/11 11:56:04;;;;;;;22.00;13.10;;;16.60;99.90;;;;;;5110143;28;20451;-73
2022/11/11 11:58:41;;;;;;;20.90;14.70;;;16.70;99.90;;;;;;5108865;28;20445;-74
2022/11/11 12:01:21;;;;;;;18.83;12.87;;;16.70;99.90;;;;;;5109645;28;20451;-74
2022/11/11 12:04:11;;;;;;;23.27;13.83;;;16.70;99.90;;;;;;5110155;28;20420;-73
2022/11/11 12:07:10;;;;;;;20.40;12.50;;;16.70;99.90;;;;;;5107516;28;20954;-74
2022/11/11 12:10:04;;;;;;;20.00;12.13;;;16.80;99.90;;;;;;5085468;27;20473;-74
2022/11/11 12:12:53;;;;;;;20.83;13.03;;;16.70;99.90;;;;;;5084604;28;20444;-73
2022/11/11 12:15:38;;;;;;;17.10;11.93;;;16.70;99.90;;;;;;5108254;28;20456;-73
2022/11/11 12:18:34;;;;;;;21.57;12.80;;;16.80;99.90;;;;;;5092302;28;20815;-72
2022/11/11 12:21:20;;;;;;;21.33;12.50;;;16.80;99.90;;;;;;5084344;28;20460;-74
2022/11/11 12:23:55;;;;;;;16.77;12.23;;;16.80;99.90;;;;;;5093808;28;20527;-74
2022/11/11 12:27:09;;;;;;;20.63;12.47;;;16.80;99.90;;;;;;5107251;28;20460;-73
2022/11/11 12:29:53;;;;;;;17.97;11.37;;;16.80;99.90;;;;;;5062640;28;20453;-74
2022/11/11 12:32:33;;;;;;;19.33;11.90;;;16.80;99.90;;;;;;5103572;27;20453;-74
2022/11/11 12:35:27;;;;;;;18.80;11.60;;;16.70;99.90;;;;;;5091784;28;20465;-74
2022/11/11 12:38:30;;;;;;;20.50;11.30;;;16.70;99.90;;;;;;5106209;27;20450;-73
2022/11/11 12:41:17;;;;;;;20.60;12.23;;;16.70;99.90;;;;;;5110909;28;20554;-75
2022/11/11 12:43:53;;;;;;;15.63;11.23;;;16.70;99.90;;;;;;5109346;28;20937;-73
2022/11/11 12:46:37;;;;;;;18.07;10.90;;;16.70;99.90;;;;;;5093119;28;20538;-73
2022/11/11 12:49:37;;;;;;;17.50;11.40;;;16.70;99.90;;;;;;5109253;28;20839;-73
2022/11/11 12:52:38;;;;;;;18.40;11.80;;;16.60;99.90;;;;;;5090939;28;20508;-73
2022/11/11 12:55:30;;;;;;;18.43;10.97;;;16.60;99.90;;;;;;4998632;28;20447;-73
2022/11/11 12:58:06;;;;;;;18.37;10.93;;;16.60;99.90;;;;;;5108013;28;20419;-74
2022/11/11 13:00:39;;;;;;;20.53;11.63;;;16.50;99.90;;;;;;5112668;27;20456;-73
2022/11/11 13:03:34;;;;;;;16.73;11.00;;;16.50;99.90;;;;;;5096824;28;20496;-74
2022/11/11 13:06:00;;;;;;;18.33;11.80;;;16.50;99.90;;;;;;5104376;28;20491;-74
2022/11/11 13:08:44;;;;;;;16.60;10.33;;;16.50;99.90;;;;;;5110112;28;20424;-74
2022/11/11 13:11:21;;;;;;;20.27;11.13;;;16.50;99.90;;;;;;5108149;28;20263;-74
2022/11/11 13:13:50;;;;;;;17.03;9.87;;;16.50;99.90;;;;;;5113416;28;20463;-74
2022/11/11 13:16:20;;;;;;;19.40;11.23;;;16.60;99.90;;;;;;5113498;28;20443;-73
2022/11/11 13:19:16;;;;;;;16.73;10.50;;;16.60;99.90;;;;;;5107596;28;21762;-74
2022/11/11 13:22:00;;;;;;;15.77;10.87;;;16.60;99.90;;;;;;5110391;28;20829;-73
2022/11/11 13:24:27;;;;;;;16.20;11.00;;;16.60;99.90;;;;;;5091574;28;20972;-73
2022/11/11 13:27:31;;;;;;;18.87;10.40;;;16.60;99.90;;;;;;5104503;28;20488;-73
2022/11/11 13:29:59;;;;;;;14.33;9.33;;;16.60;99.90;;;;;;5070903;28;20452;-74
2022/11/11 13:32:38;;;;;;;15.60;9.50;;;16.60;99.90;;;;;;5103555;28;20498;-74
2022/11/11 13:35:29;;;;;;;17.10;10.50;;;16.70;99.90;;;;;;5110070;27;20839;-74
2022/11/11 13:37:55;;;;;;;16.17;10.10;;;16.70;99.90;;;;;;5111027;28;20487;-74
2022/11/11 13:40:32;;;;;;;13.93;9.87;;;16.60;99.90;;;;;;5113886;28;20858;-74
2022/11/11 13:42:59;;;;;;;15.00;10.87;;;16.60;99.90;;;;;;5113764;28;20440;-75
2022/11/11 13:45:27;;;;;;;19.10;11.10;;;16.60;99.90;;;;;;5093839;28;20443;-74
2022/11/11 13:47:54;;;;;;;21.00;13.23;;;16.50;99.90;;;;;;5101404;28;21219;-73
2022/11/11 13:50:28;;;;;;;18.33;10.93;;;16.50;99.90;;;;;;5102159;27;20516;-74
2022/11/11 13:53:03;;;;;;;18.10;11.30;;;16.50;99.90;;;;;;5091407;28;20808;-73
2022/11/11 13:55:31;;;;;;;16.60;11.07;;;16.40;99.90;;;;;;5103335;28;20495;-73
2022/11/11 13:57:58;;;;;;;16.53;10.77;;;16.40;99.90;;;;;;5108697;27;20870;-74
2022/11/11 14:00:33;;;;;;;15.70;10.70;;;16.30;99.90;;;;;;5090287;28;20457;-72
2022/11/11 14:03:17;;;;;;;18.47;12.00;;;16.30;99.90;;;;;;5108320;28;20392;-72
2022/11/11 14:05:44;;;;;;;15.37;11.20;;;16.30;99.90;;;;;;5108907;28;20550;-72